createdAt,value
2018-03-02T00:02:00.806Z,40.38
2018-03-02T00:05:04.779Z,40.23
2018-03-02T00:08:07.945Z,40.39
2018-03-02T00:11:11.105Z,40.18
2018-03-02T00:14:14.329Z,40.81
2018-03-02T00:17:17.624Z,40.51
2018-03-02T00:20:20.790Z,41.38
2018-03-02T00:23:23.985Z,40.90
2018-03-02T00:26:27.144Z,41.55
2018-03-02T00:29:30.413Z,41.22
2018-03-02T00:32:33.609Z,41.38
2018-03-02T00:35:36.866Z,41.37
2018-03-02T00:38:40.048Z,41.42
2018-03-02T00:41:43.263Z,41.89
2018-03-02T00:44:46.458Z,41.62
2018-03-02T00:47:49.661Z,42.08
2018-03-02T00:50:52.865Z,41.59
2018-03-02T00:53:56.045Z,42.08
2018-03-02T00:56:59.609Z,41.77
2018-03-02T01:00:02.777Z,41.79
2018-03-02T01:03:05.922Z,42.50
2018-03-02T01:06:09.109Z,42.45
2018-03-02T01:09:12.257Z,42.35
2018-03-02T01:12:15.453Z,42.49
2018-03-02T01:15:18.670Z,42.65
2018-03-02T01:18:21.829Z,42.63
2018-03-02T01:21:25.031Z,42.73
2018-03-02T01:24:28.199Z,42.40
2018-03-02T01:27:31.336Z,42.86
2018-03-02T01:30:34.605Z,42.89
2018-03-02T01:33:37.808Z,43.03
2018-03-02T01:36:41.008Z,43.05
2018-03-02T01:39:44.181Z,43.31
2018-03-02T01:42:47.354Z,43.03
2018-03-02T01:45:50.858Z,43.17
2018-03-02T01:52:32.091Z,43.53
2018-03-02T01:55:36.230Z,43.05
2018-03-02T01:58:39.396Z,43.52
2018-03-02T02:01:42.614Z,43.54
2018-03-02T02:04:45.806Z,43.47
2018-03-02T02:07:48.993Z,43.54
2018-03-02T02:10:52.264Z,43.45
2018-03-02T02:13:55.504Z,43.25
2018-03-02T02:20:36.745Z,43.70
2018-03-02T02:23:39.909Z,43.80
2018-03-02T02:26:43.094Z,43.84
2018-03-02T02:29:46.268Z,43.77
2018-03-02T02:32:49.490Z,44.04
2018-03-02T02:35:52.698Z,44.20
2018-03-02T02:38:55.862Z,43.99
2018-03-02T02:41:59.098Z,44.44
2018-03-02T02:45:02.361Z,44.68
2018-03-02T02:48:06.707Z,44.52
2018-03-02T02:51:09.922Z,44.43
2018-03-02T02:54:13.111Z,44.79
2018-03-02T02:57:16.295Z,44.66
2018-03-02T03:00:19.469Z,44.73
2018-03-02T03:03:22.637Z,44.87
2018-03-02T03:06:25.861Z,44.92
2018-03-02T03:09:29.162Z,45.08
2018-03-02T03:12:32.311Z,45.26
2018-03-02T03:15:36.534Z,45.53
2018-03-02T03:18:39.822Z,45.57
2018-03-02T03:21:43.091Z,45.58
2018-03-02T03:24:46.266Z,45.40
2018-03-02T03:27:49.570Z,45.78
2018-03-02T03:30:52.781Z,45.54
2018-03-02T03:33:55.979Z,45.93
2018-03-02T03:36:59.325Z,45.89
2018-03-02T03:40:02.611Z,45.77
2018-03-02T03:43:06.964Z,45.78
2018-03-02T03:46:10.114Z,46.21
2018-03-02T03:49:13.305Z,46.33
2018-03-02T03:52:16.910Z,46.23
2018-03-02T03:55:20.074Z,46.17
2018-03-02T03:58:23.289Z,46.27
2018-03-02T04:01:26.454Z,46.30
2018-03-02T04:04:29.698Z,46.29
2018-03-02T04:07:32.946Z,46.32
2018-03-02T04:10:36.414Z,46.54
2018-03-02T04:13:39.736Z,46.42
2018-03-02T04:16:43.059Z,46.79
2018-03-02T04:19:46.230Z,46.69
2018-03-02T04:22:49.406Z,46.82
2018-03-02T04:25:52.601Z,46.78
2018-03-02T04:28:55.772Z,46.85
2018-03-02T04:31:58.993Z,46.85
2018-03-02T04:35:02.278Z,46.81
2018-03-02T04:38:06.500Z,47.14
2018-03-02T04:41:09.683Z,47.27
2018-03-02T04:47:51.115Z,47.10
2018-03-02T04:50:54.293Z,47.03
2018-03-02T04:53:57.478Z,47.25
2018-03-02T04:57:00.689Z,47.34
2018-03-02T05:00:05.353Z,47.41
2018-03-02T05:03:08.622Z,47.63
2018-03-02T05:06:11.782Z,47.33
2018-03-02T05:09:14.947Z,47.47
2018-03-02T05:12:18.086Z,47.53
2018-03-02T05:15:21.283Z,47.50
2018-03-02T05:18:24.489Z,47.44
2018-03-02T05:21:27.647Z,47.71
2018-03-02T05:24:30.784Z,47.49
2018-03-02T05:27:35.058Z,47.67
2018-03-02T05:30:38.332Z,47.40
2018-03-02T05:33:41.523Z,47.51
2018-03-02T05:36:45.045Z,48.97
2018-03-02T05:39:48.343Z,47.32
2018-03-02T05:42:51.527Z,47.58
2018-03-02T05:45:54.734Z,47.64
2018-03-02T05:48:57.885Z,47.72
2018-03-02T05:52:01.126Z,47.81
2018-03-02T05:55:04.820Z,47.84
2018-03-02T06:01:38.573Z,47.65
2018-03-02T06:04:41.784Z,47.84
2018-03-02T06:07:44.962Z,47.92
2018-03-02T06:10:48.240Z,47.94
2018-03-02T06:13:51.459Z,48.11
2018-03-02T06:16:54.731Z,48.00
2018-03-02T06:19:57.986Z,48.29
2018-03-02T06:23:01.290Z,47.96
2018-03-02T06:26:04.598Z,47.90
2018-03-02T06:29:07.874Z,48.22
2018-03-02T06:32:11.179Z,48.46
2018-03-02T06:35:14.470Z,48.08
2018-03-02T06:38:17.746Z,48.13
2018-03-02T06:41:21.015Z,48.19
2018-03-02T06:44:24.222Z,48.46
2018-03-02T06:47:27.522Z,48.22
2018-03-02T06:50:30.699Z,48.12
2018-03-02T06:53:33.950Z,48.01
2018-03-02T06:56:37.134Z,48.23
2018-03-02T06:59:40.359Z,48.01
2018-03-02T07:02:44.362Z,47.99
2018-03-02T07:05:47.833Z,48.01
2018-03-02T07:08:51.151Z,48.14
2018-03-02T07:11:54.378Z,47.98
2018-03-02T07:14:57.550Z,47.89
2018-03-02T07:18:00.886Z,47.78
2018-03-02T07:21:04.232Z,47.78
2018-03-02T07:24:07.450Z,47.78
2018-03-02T07:27:10.627Z,47.62
2018-03-02T07:30:14.727Z,47.57
2018-03-02T07:33:17.956Z,47.33
2018-03-02T07:36:21.218Z,47.63
2018-03-02T07:39:24.437Z,47.64
2018-03-02T07:42:27.622Z,47.51
2018-03-02T07:45:30.797Z,47.54
2018-03-02T07:48:34.563Z,47.42
2018-03-02T07:51:37.787Z,47.30
2018-03-02T07:54:41.004Z,47.28
2018-03-02T07:57:44.718Z,47.33
2018-03-02T08:00:48.000Z,46.90
2018-03-02T08:03:51.158Z,47.10
2018-03-02T08:06:54.408Z,47.19
2018-03-02T08:09:57.586Z,47.06
2018-03-02T08:13:00.836Z,46.91
2018-03-02T08:16:04.088Z,47.25
2018-03-02T08:19:07.238Z,47.01
2018-03-02T08:22:10.441Z,47.22
2018-03-02T08:25:14.871Z,47.08
2018-03-02T08:28:18.062Z,47.06
2018-03-02T08:31:21.335Z,46.91
2018-03-02T08:34:24.534Z,46.54
2018-03-02T08:37:27.812Z,45.81
2018-03-02T08:40:30.995Z,45.67
2018-03-02T08:43:34.190Z,46.00
2018-03-02T08:46:37.362Z,45.81
2018-03-02T08:49:41.009Z,46.07
2018-03-02T08:52:44.260Z,45.99
2018-03-02T08:55:47.632Z,45.64
2018-03-02T08:58:50.792Z,45.74
2018-03-02T09:01:54.013Z,45.47
2018-03-02T09:04:57.185Z,45.27
2018-03-02T09:08:00.374Z,45.14
2018-03-02T09:11:03.661Z,45.53
2018-03-02T09:14:06.874Z,45.33
2018-03-02T09:17:10.072Z,45.26
2018-03-02T09:20:14.239Z,45.24
2018-03-02T09:23:17.404Z,45.15
2018-03-02T09:26:20.577Z,45.04
2018-03-02T09:29:23.787Z,45.04
2018-03-02T09:32:26.969Z,45.22
2018-03-02T09:35:30.156Z,45.28
2018-03-02T09:38:33.331Z,44.57
2018-03-02T09:41:36.550Z,44.67
2018-03-02T09:44:39.719Z,44.78
2018-03-02T09:47:43.553Z,44.46
2018-03-02T09:50:46.733Z,44.46
2018-03-02T09:53:49.927Z,44.60
2018-03-02T09:56:53.105Z,44.33
2018-03-02T09:59:56.370Z,44.51
2018-03-02T10:02:59.525Z,44.43
2018-03-02T10:06:02.724Z,44.74
2018-03-02T10:09:05.919Z,44.01
2018-03-02T10:12:09.106Z,42.91
2018-03-02T10:15:12.294Z,41.42
2018-03-02T10:18:16.192Z,42.33
2018-03-02T10:21:19.603Z,41.48
2018-03-02T10:24:22.906Z,41.66
2018-03-02T10:27:26.060Z,41.69
2018-03-02T10:30:29.298Z,41.68
2018-03-02T10:33:32.564Z,41.47
2018-03-02T10:36:35.786Z,41.25
2018-03-02T10:39:38.970Z,40.63
2018-03-02T10:42:42.178Z,40.38
2018-03-02T10:45:46.185Z,40.96
2018-03-02T10:48:49.342Z,41.23
2018-03-02T10:51:52.578Z,41.84
2018-03-02T10:54:55.748Z,41.11
2018-03-02T10:57:58.985Z,41.13
2018-03-02T11:01:06.333Z,41.20
2018-03-02T11:04:10.450Z,41.62
2018-03-02T11:07:14.157Z,41.85
2018-03-02T11:10:17.297Z,41.71
2018-03-02T11:13:20.479Z,41.84
2018-03-02T11:16:23.676Z,41.12
2018-03-02T11:19:26.878Z,40.72
2018-03-02T11:22:30.059Z,40.63
2018-03-02T11:25:33.282Z,40.69
2018-03-02T11:28:36.478Z,40.30
2018-03-02T11:31:39.636Z,40.22
2018-03-02T11:34:42.774Z,40.09
2018-03-02T11:37:47.105Z,40.09
2018-03-02T11:40:50.272Z,39.95
2018-03-02T11:43:53.420Z,39.54
2018-03-02T11:46:56.656Z,39.75
2018-03-02T11:49:59.746Z,39.20
2018-03-02T11:53:02.946Z,39.48
2018-03-02T11:56:06.655Z,39.14
2018-03-02T11:59:09.870Z,39.21
2018-03-02T12:02:13.002Z,38.86
2018-03-02T12:05:17.153Z,38.92
2018-03-02T12:08:20.313Z,38.86
2018-03-02T12:11:23.466Z,38.49
2018-03-02T12:14:26.680Z,38.75
2018-03-02T12:17:30.046Z,38.99
2018-03-02T12:20:33.208Z,38.78
2018-03-02T12:23:36.515Z,38.74
2018-03-02T12:26:39.610Z,38.42
2018-03-02T12:29:42.860Z,38.33
2018-03-02T12:32:46.580Z,38.45
2018-03-02T12:35:49.730Z,38.16
2018-03-02T12:38:52.900Z,38.57
2018-03-02T12:41:56.126Z,38.23
2018-03-02T12:44:59.903Z,38.32
2018-03-02T12:48:03.134Z,38.07
2018-03-02T12:51:06.322Z,38.54
2018-03-02T12:54:09.520Z,38.18
2018-03-02T12:57:12.793Z,38.10
2018-03-02T13:00:16.634Z,38.24
2018-03-02T13:03:19.769Z,38.15
2018-03-02T13:06:22.932Z,37.98
2018-03-02T13:09:26.147Z,38.06
2018-03-02T13:12:29.304Z,38.12
2018-03-02T13:15:32.447Z,38.11
2018-03-02T13:18:43.119Z,38.68
2018-03-02T13:21:47.514Z,38.28
2018-03-02T13:24:50.710Z,38.61
2018-03-02T13:28:05.340Z,38.64
2018-03-02T13:31:08.597Z,38.32
2018-03-02T13:35:15.810Z,38.60
2018-03-02T13:38:19.081Z,38.42
2018-03-02T13:41:33.666Z,38.13
2018-03-02T13:44:36.837Z,38.20
2018-03-02T13:47:46.665Z,38.43
2018-03-02T13:50:49.814Z,38.14
2018-03-02T13:53:53.001Z,38.21
2018-03-02T13:58:03.120Z,38.13
2018-03-02T14:01:06.345Z,38.27
2018-03-02T14:05:13.850Z,37.96
2018-03-02T14:08:17.978Z,37.93
2018-03-02T14:11:21.167Z,37.90
2018-03-02T14:14:24.437Z,38.09
2018-03-02T14:17:27.648Z,37.76
2018-03-02T14:20:30.852Z,37.81
2018-03-02T14:23:34.047Z,37.90
2018-03-02T14:26:37.244Z,38.14
2018-03-02T14:29:40.462Z,37.98
2018-03-02T14:32:43.616Z,37.76
2018-03-02T14:35:47.927Z,37.84
2018-03-02T14:38:51.161Z,37.70
2018-03-02T14:41:54.325Z,37.84
2018-03-02T14:44:57.574Z,37.78
2018-03-02T14:48:00.782Z,37.75
2018-03-02T14:51:04.096Z,37.82
2018-03-02T14:54:07.360Z,37.86
2018-03-02T14:57:10.627Z,37.93
2018-03-02T15:00:13.835Z,38.07
2018-03-02T15:03:18.010Z,38.08
2018-03-02T15:06:21.163Z,38.06
2018-03-02T15:09:24.346Z,38.49
2018-03-02T15:12:27.495Z,38.61
2018-03-02T15:15:30.649Z,38.48
2018-03-02T15:18:34.345Z,38.56
2018-03-02T15:21:37.697Z,38.66
2018-03-02T15:24:40.962Z,38.57
2018-03-02T15:27:44.150Z,38.91
2018-03-02T15:30:49.278Z,38.78
2018-03-02T15:33:52.449Z,39.08
2018-03-02T15:36:55.678Z,39.19
2018-03-02T15:39:58.944Z,38.93
2018-03-02T15:43:02.654Z,38.98
2018-03-02T15:46:05.812Z,38.88
2018-03-02T15:49:09.070Z,39.05
2018-03-02T15:52:12.291Z,39.01
2018-03-02T15:55:16.058Z,39.24
2018-03-02T15:58:19.317Z,39.84
2018-03-02T16:01:22.555Z,39.81
2018-03-02T16:04:25.929Z,41.95
2018-03-02T16:07:29.126Z,43.26
2018-03-02T16:10:32.349Z,43.42
2018-03-02T16:13:35.654Z,43.27
2018-03-02T16:16:38.976Z,44.54
2018-03-02T16:19:42.259Z,46.15
2018-03-02T16:22:47.006Z,47.17
2018-03-02T16:25:50.225Z,49.52
2018-03-02T16:28:53.428Z,50.40
2018-03-02T16:31:56.676Z,51.83
2018-03-02T16:34:59.977Z,53.54
2018-03-02T16:38:03.204Z,53.76
2018-03-02T16:41:06.962Z,54.39
2018-03-02T16:44:10.295Z,54.68
2018-03-02T16:47:14.344Z,55.20
2018-03-02T16:50:17.485Z,56.22
2018-03-02T16:53:20.826Z,58.65
2018-03-02T16:56:24.114Z,60.96
2018-03-02T16:59:27.383Z,63.60
2018-03-02T17:02:30.636Z,65.94
2018-03-02T17:05:34.043Z,67.17
2018-03-02T17:08:37.165Z,68.25
2018-03-02T17:11:40.446Z,68.71
2018-03-02T17:14:44.554Z,70.07
2018-03-02T17:17:47.882Z,69.66
2018-03-02T17:20:51.187Z,70.60
2018-03-02T17:23:55.509Z,70.71
2018-03-02T17:26:58.737Z,71.95
2018-03-02T17:30:01.988Z,72.19
2018-03-02T17:33:05.170Z,71.59
2018-03-02T17:36:08.343Z,72.56
2018-03-02T17:39:11.535Z,72.85
2018-03-02T17:42:15.637Z,73.47
2018-03-02T17:45:18.931Z,73.49
2018-03-02T17:48:22.117Z,73.52
2018-03-02T17:51:25.453Z,73.79
2018-03-02T17:54:28.662Z,72.96
2018-03-02T17:57:31.947Z,74.39
2018-03-02T18:00:35.584Z,74.61
2018-03-02T18:03:38.750Z,74.81
2018-03-02T18:06:43.053Z,74.86
2018-03-02T18:09:46.879Z,73.89
2018-03-02T18:12:50.096Z,74.46
2018-03-02T18:15:53.336Z,73.03
2018-03-02T18:18:56.592Z,75.86
2018-03-02T18:21:59.771Z,74.76
2018-03-02T18:25:02.977Z,74.69
2018-03-02T18:28:06.159Z,75.26
2018-03-02T18:31:09.492Z,74.49
2018-03-02T18:34:12.673Z,74.49
2018-03-02T18:37:15.858Z,73.92
2018-03-02T18:40:19.054Z,75.81
2018-03-02T18:43:22.267Z,75.73
2018-03-02T18:46:25.462Z,74.92
2018-03-02T18:49:28.663Z,74.45
2018-03-02T18:52:31.833Z,74.89
2018-03-02T18:55:35.106Z,74.35
2018-03-02T18:58:38.242Z,74.44
2018-03-02T19:01:41.554Z,76.20
2018-03-02T19:04:44.854Z,76.47
2018-03-02T19:07:48.126Z,76.33
2018-03-02T19:10:51.321Z,76.04
2018-03-02T19:13:54.532Z,75.66
2018-03-02T19:16:57.827Z,74.00
2018-03-02T19:20:01.063Z,76.09
2018-03-02T19:23:04.244Z,75.41
2018-03-02T19:26:07.458Z,76.09
2018-03-02T19:29:11.538Z,76.00
2018-03-02T19:32:14.826Z,76.22
2018-03-02T19:35:17.981Z,76.25
2018-03-02T19:38:21.138Z,75.50
2018-03-02T19:41:24.362Z,74.81
2018-03-02T19:44:27.614Z,74.12
2018-03-02T19:47:30.781Z,75.67
2018-03-02T19:50:33.961Z,74.50
2018-03-02T19:53:37.132Z,74.98
2018-03-02T19:56:40.453Z,75.96
2018-03-02T19:59:44.726Z,74.91
2018-03-02T20:02:47.956Z,75.26
2018-03-02T20:05:51.344Z,75.90
2018-03-02T20:08:54.653Z,76.09
2018-03-02T20:11:57.939Z,76.22
2018-03-02T20:15:01.633Z,75.40
2018-03-02T20:18:05.043Z,76.43
2018-03-02T20:21:09.442Z,76.61
2018-03-02T20:24:12.857Z,76.21
2018-03-02T20:27:16.793Z,75.60
2018-03-02T20:30:20.094Z,75.90
2018-03-02T20:33:23.642Z,77.06
2018-03-02T20:36:26.883Z,76.64
2018-03-02T20:39:30.234Z,76.16
2018-03-02T20:42:33.904Z,77.76
2018-03-02T20:45:37.135Z,78.00
2018-03-02T20:48:40.434Z,77.79
2018-03-02T20:51:43.880Z,77.11
2018-03-02T20:54:47.234Z,77.13
2018-03-02T20:57:50.558Z,78.75
2018-03-02T21:00:53.935Z,78.41
2018-03-02T21:03:57.187Z,77.15
2018-03-02T21:07:00.629Z,77.97
2018-03-02T21:10:04.002Z,76.95
2018-03-02T21:13:07.438Z,77.77
2018-03-02T21:16:12.480Z,77.37
2018-03-02T21:19:15.809Z,76.92
2018-03-02T21:22:19.426Z,77.06
2018-03-02T21:25:22.655Z,76.96
2018-03-02T21:28:25.842Z,77.52
2018-03-02T21:31:29.565Z,75.64
2018-03-02T21:34:32.890Z,76.22
2018-03-02T21:37:35.998Z,77.27
2018-03-02T21:40:39.193Z,76.21
2018-03-02T21:43:42.438Z,77.04
2018-03-02T21:46:45.687Z,76.56
2018-03-02T21:49:48.879Z,77.56
2018-03-02T21:52:52.082Z,76.53
2018-03-02T21:55:55.283Z,76.86
2018-03-02T21:58:58.490Z,77.96
2018-03-02T22:02:01.826Z,76.30
2018-03-02T22:05:05.004Z,76.48
2018-03-02T22:08:08.175Z,77.28
2018-03-02T22:11:11.355Z,77.57
2018-03-02T22:14:15.306Z,77.64
2018-03-02T22:17:18.455Z,76.63
2018-03-02T22:20:21.651Z,76.42
2018-03-02T22:23:24.851Z,77.32
2018-03-02T22:26:28.033Z,76.52
2018-03-02T22:29:31.253Z,76.33
2018-03-02T22:32:34.454Z,76.44
2018-03-02T22:35:37.614Z,76.55
2018-03-02T22:38:40.838Z,76.66
2018-03-02T22:41:44.005Z,76.70
2018-03-02T22:44:47.283Z,76.63
2018-03-02T22:47:50.554Z,75.64
2018-03-02T22:50:53.708Z,76.22
2018-03-02T22:53:56.933Z,76.35
2018-03-02T22:57:00.140Z,76.56
2018-03-02T23:00:03.351Z,76.86
2018-03-02T23:03:06.526Z,76.41
2018-03-02T23:06:09.715Z,75.95
2018-03-02T23:09:12.977Z,75.67
2018-03-02T23:12:16.207Z,75.48
2018-03-02T23:15:20.324Z,75.62
2018-03-02T23:18:23.478Z,75.68
2018-03-02T23:21:26.642Z,75.72
2018-03-02T23:24:29.835Z,76.33
2018-03-02T23:27:33.005Z,75.91
2018-03-02T23:30:36.201Z,75.31
2018-03-02T23:33:45.759Z,74.96
2018-03-02T23:36:51.412Z,75.67
2018-03-02T23:39:54.586Z,76.26
2018-03-02T23:42:57.823Z,75.95
2018-03-02T23:46:00.999Z,75.48
2018-03-02T23:49:04.145Z,75.54
2018-03-02T23:52:07.411Z,76.23
2018-03-02T23:55:10.587Z,75.85
2018-03-02T23:58:13.816Z,75.95
